Αρχική σελίδα
METAR-TAF:

METAR-TAF

Αεροδρόμια :

Καράτσι, Πακιστάν

γεωγραφικό πλάτος: 24-54N, γεωγραφικό μήκος: 067-08E, υψόμετρο: 21 μ

Παρών καιρός

Η αναφορά έγινε 34 λεπτά πριν, στις 11:55 UTC
Άνεμος 8 kt από Ν/ΝΔ
Θερμοκρασία 31°C
Υγρασία 22%
Πίεση 1013 hPa
Ορατότητα: 6000 μ

METAR: OPKC 161155Z 21008KT 6000 NSC 31/07 Q1013 NOSIG

Χρόνος: 17:29 (12:29 UTC)

Πρόγνωση Καιρού

Η αναφορά έγινε 2 ώρες και 29 λεπτά πριν, στις 10:00 UTC
Η πρόγνωση ισχύει από τις 16 στις 12 UTC έως τις 17 στις 18 UTC
Άνεμος 5 kt από Δ με ριπές μέχρι 15 kt
Ορατότητα: 5000 μ
Διάσπαρτα νέφη σε ύψος 3000 πόδια
καταχνιά
Προσωρινά
από 17 στις 00 UTC έως τις 17 στις 04 UTC
Άνεμος 5 kt από Δ
Ορατότητα: 2500 μ
καπνός
Από 17 στις 0600 UTC
Άνεμος 5 kt από Δ με ριπές μέχρι 15 kt
Ορατότητα: 6000 μ

TAF: OPKC 161000Z 1612/1718 26005G15KT 5000 HZ SCT030 TEMPO 1700/1704 28005KT 2500 FU NSC FM170600 26005G15KT 6000 NSC

Μετεωρολογικές αναφορές και προγνώσεις για περισσότερα από 4000 αεροδρόμια (δελτία METAR και TAF).

Οι διαθέσιμοι σταθμοί απεικονίζονται στο χάρτη με κίτρινες και κόκκινες κουκκίδες.

Μετακινήστε το ποντίκι πάνω από τις κουκκίδες για να δείτε το όνομα του σταθμού.

Στη συνέχεια, κάντε κλικ για να δείτε τις μετεωρολογικές αναφορές και τις προγνώσεις καιρού.

Για να αλλάξετε το χάρτη: κάντε κλικ στα πράσινα κουμπιά με τον μαύρο σταυρό για να ζουμάρετε, στο πράσινο κουμπί με την παύλα για να αφαιρέσετε το ζουμ ή στα πράσινα βέλη για να αντιπαραβάλλετε χάρτες.


METAR-TAF: